createdAt,value
2023-03-29T00:04:06.270Z,2.38
2023-03-29T00:09:32.709Z,6.80
2023-03-29T00:14:56.516Z,4.13
2023-03-29T00:20:20.725Z,1.58
2023-03-29T00:25:47.148Z,2.95
2023-03-29T00:31:12.302Z,2.40
2023-03-29T00:36:36.098Z,3.78
2023-03-29T00:42:01.232Z,2.00
2023-03-29T00:47:28.851Z,4.82
2023-03-29T00:52:55.984Z,6.15
2023-03-29T00:58:26.384Z,7.32
2023-03-29T01:03:55.260Z,6.72
2023-03-29T01:09:23.166Z,7.60
2023-03-29T01:14:53.708Z,7.85
2023-03-29T01:20:24.560Z,13.40
2023-03-29T01:25:58.425Z,9.95
2023-03-29T01:31:27.205Z,11.50
2023-03-29T01:37:00.312Z,17.23
2023-03-29T01:42:36.932Z,29.23
2023-03-29T01:48:06.874Z,17.77
2023-03-29T01:53:35.388Z,24.85
2023-03-29T01:59:05.103Z,13.88
2023-03-29T02:04:34.575Z,9.80
2023-03-29T02:09:59.946Z,4.53
2023-03-29T02:15:24.508Z,2.58
2023-03-29T02:20:51.639Z,1.50
2023-03-29T02:26:16.033Z,4.20
2023-03-29T02:31:43.895Z,2.75
2023-03-29T02:37:13.523Z,0.90
2023-03-29T02:42:38.452Z,2.58
2023-03-29T02:48:06.623Z,3.40
2023-03-29T02:53:35.896Z,3.22
2023-03-29T02:58:59.776Z,10.77
2023-03-29T03:04:23.657Z,31.13
2023-03-29T03:09:49.008Z,21.75
2023-03-29T03:15:13.497Z,37.28
2023-03-29T03:20:37.644Z,63.97
2023-03-29T03:26:02.978Z,48.28
2023-03-29T03:31:28.556Z,48.20
2023-03-29T03:37:13.118Z,40.92
2023-03-29T03:42:38.347Z,49.97
2023-03-29T03:48:02.239Z,60.40
2023-03-29T03:53:46.683Z,33.53
2023-03-29T03:59:11.805Z,11.35
2023-03-29T04:04:55.703Z,8.40
2023-03-29T04:10:26.965Z,8.02
2023-03-29T04:16:01.755Z,5.35
2023-03-29T04:21:26.313Z,13.55
2023-03-29T04:26:50.140Z,13.43
2023-03-29T04:32:20.444Z,20.77
2023-03-29T04:37:57.210Z,14.02
2023-03-29T04:43:22.612Z,41.50
2023-03-29T04:48:55.453Z,22.40
2023-03-29T04:54:29.181Z,24.17
2023-03-29T05:00:15.171Z,11.40
2023-03-29T05:06:07.244Z,18.33
2023-03-29T05:11:32.438Z,6.85
2023-03-29T05:16:57.133Z,15.68
2023-03-29T05:22:23.514Z,5.22
2023-03-29T05:27:47.778Z,4.28
2023-03-29T05:33:11.621Z,3.10
2023-03-29T05:38:38.224Z,7.72
2023-03-29T05:44:02.512Z,5.22
2023-03-29T05:49:27.546Z,4.28
2023-03-29T05:55:13.988Z,5.85
2023-03-29T06:00:38.618Z,5.75
2023-03-29T06:06:19.451Z,7.00
2023-03-29T06:11:45.114Z,6.22
2023-03-29T06:17:41.357Z,8.60
2023-03-29T06:23:05.339Z,10.95
2023-03-29T06:28:30.691Z,17.60
2023-03-29T06:33:55.390Z,7.13
2023-03-29T06:39:33.009Z,8.40
2023-03-29T06:45:23.817Z,7.80
2023-03-29T06:50:48.913Z,6.97
2023-03-29T06:56:16.114Z,6.35
2023-03-29T07:01:45.105Z,8.27
2023-03-29T07:07:22.183Z,7.57
2023-03-29T07:12:57.342Z,4.15
2023-03-29T07:18:22.851Z,10.73
2023-03-29T07:23:46.710Z,6.78
2023-03-29T07:29:10.741Z,8.05
2023-03-29T07:34:37.205Z,7.00
2023-03-29T07:40:09.010Z,7.20
2023-03-29T07:46:02.425Z,2.42
2023-03-29T07:51:28.836Z,2.40
2023-03-29T07:57:01.060Z,5.85
2023-03-29T08:02:33.292Z,3.92
2023-03-29T08:08:01.022Z,8.25
2023-03-29T08:13:51.503Z,6.40
2023-03-29T08:19:34.117Z,4.72
2023-03-29T08:25:05.624Z,5.63
2023-03-29T08:30:34.464Z,6.18
2023-03-29T08:35:59.722Z,5.70
2023-03-29T08:41:39.140Z,3.30
2023-03-29T08:47:11.804Z,2.63
2023-03-29T08:52:41.478Z,3.13
2023-03-29T08:58:39.543Z,3.40
2023-03-29T09:04:08.898Z,5.07
2023-03-29T09:09:49.774Z,6.72
2023-03-29T09:15:29.908Z,7.82
2023-03-29T09:21:16.199Z,4.57
2023-03-29T09:26:43.105Z,3.92
2023-03-29T09:32:33.097Z,3.05
2023-03-29T09:38:00.769Z,3.45
2023-03-29T09:43:32.825Z,2.20
2023-03-29T09:49:00.448Z,1.60
2023-03-29T09:54:24.496Z,2.95
2023-03-29T10:00:10.736Z,2.75
2023-03-29T10:05:40.088Z,2.10
2023-03-29T10:11:16.297Z,3.63
2023-03-29T10:16:42.337Z,3.47
2023-03-29T10:22:14.796Z,2.70
2023-03-29T10:27:43.023Z,2.13
2023-03-29T10:33:09.116Z,2.92
2023-03-29T10:38:38.266Z,2.70
2023-03-29T10:44:03.375Z,4.28
2023-03-29T10:49:27.954Z,5.03
2023-03-29T10:54:55.903Z,3.38
2023-03-29T11:00:24.901Z,4.95
2023-03-29T11:05:55.772Z,3.90
2023-03-29T11:11:41.224Z,2.63
2023-03-29T11:17:19.281Z,3.30
2023-03-29T11:22:49.386Z,2.15
2023-03-29T11:28:22.211Z,5.85
2023-03-29T11:33:56.914Z,2.40
2023-03-29T11:39:28.279Z,2.08
2023-03-29T11:50:23.934Z,2.03
2023-03-29T11:55:48.366Z,3.33
2023-03-29T12:01:18.321Z,4.40
2023-03-29T12:06:48.650Z,4.25
2023-03-29T12:12:18.702Z,2.92
2023-03-29T12:17:48.925Z,3.20
2023-03-29T12:23:15.807Z,2.63
2023-03-29T12:29:05.617Z,5.50
2023-03-29T12:34:41.635Z,4.53
2023-03-29T12:40:26.222Z,4.57
2023-03-29T12:46:11.621Z,3.28
2023-03-29T12:51:38.143Z,12.90
2023-03-29T12:57:03.643Z,5.22
2023-03-29T13:02:37.090Z,3.70
2023-03-29T13:08:20.617Z,6.18
2023-03-29T13:13:44.865Z,5.18
2023-03-29T13:19:22.652Z,3.65
2023-03-29T13:25:08.193Z,3.80
2023-03-29T13:30:45.182Z,5.38
2023-03-29T13:36:15.727Z,5.32
2023-03-29T13:41:50.648Z,7.72
2023-03-29T13:47:29.404Z,3.67
2023-03-29T13:53:00.646Z,4.07
2023-03-29T14:03:58.686Z,8.50
2023-03-29T14:09:24.978Z,9.02
2023-03-29T14:14:58.767Z,4.03
2023-03-29T14:20:23.504Z,4.43
2023-03-29T14:25:47.296Z,7.20
2023-03-29T14:31:20.136Z,9.73
2023-03-29T14:36:46.717Z,4.97
2023-03-29T14:42:20.952Z,3.92
2023-03-29T14:47:47.792Z,5.10
2023-03-29T14:53:19.203Z,7.13
2023-03-29T14:58:47.661Z,2.55
2023-03-29T15:04:13.001Z,6.75
2023-03-29T15:09:40.024Z,4.03
2023-03-29T15:15:05.935Z,18.42
2023-03-29T15:20:34.831Z,21.67
2023-03-29T15:26:00.249Z,63.50
2023-03-29T15:31:27.555Z,7.20
2023-03-29T15:36:54.057Z,5.30
2023-03-29T15:42:17.983Z,5.97
2023-03-29T15:47:42.356Z,6.40
2023-03-29T15:53:15.228Z,5.22
2023-03-29T15:58:39.678Z,4.70
2023-03-29T16:04:04.506Z,18.88
2023-03-29T16:09:30.468Z,12.15
2023-03-29T16:14:54.253Z,13.18
2023-03-29T16:20:20.040Z,7.72
2023-03-29T16:25:45.344Z,6.35
2023-03-29T16:31:11.268Z,4.57
2023-03-29T16:36:35.076Z,9.40
2023-03-29T16:42:00.254Z,7.53
2023-03-29T16:47:24.285Z,48.25
2023-03-29T16:52:48.948Z,5.97
2023-03-29T16:58:15.497Z,4.38
2023-03-29T17:03:40.101Z,5.45
2023-03-29T17:09:05.163Z,2.08
2023-03-29T17:14:30.660Z,3.25
2023-03-29T17:19:56.053Z,2.30
2023-03-29T17:25:19.949Z,7.57
2023-03-29T17:30:47.237Z,2.75
2023-03-29T17:36:12.122Z,3.85
2023-03-29T17:41:36.485Z,2.90
2023-03-29T17:47:01.904Z,18.75
2023-03-29T17:52:26.275Z,28.92
2023-03-29T17:57:50.118Z,26.50
2023-03-29T18:03:15.299Z,3.65
2023-03-29T18:08:39.686Z,13.00
2023-03-29T18:14:05.223Z,11.63
2023-03-29T18:19:30.898Z,12.02
2023-03-29T18:24:54.977Z,9.82
2023-03-29T18:30:18.858Z,7.30
2023-03-29T18:35:48.475Z,6.88
2023-03-29T18:41:13.919Z,26.98
2023-03-29T18:46:38.096Z,13.70
2023-03-29T18:52:04.883Z,15.57
2023-03-29T18:57:28.764Z,9.00
2023-03-29T19:02:52.715Z,12.80
2023-03-29T19:08:17.909Z,12.95
2023-03-29T19:13:41.922Z,9.77
2023-03-29T19:19:07.008Z,6.85
2023-03-29T19:24:32.428Z,3.30
2023-03-29T19:29:56.263Z,4.30
2023-03-29T19:35:20.100Z,3.97
2023-03-29T19:40:47.217Z,7.80
2023-03-29T19:46:15.102Z,4.00
2023-03-29T19:51:38.905Z,4.97
2023-03-29T19:57:04.229Z,3.70
2023-03-29T20:02:28.171Z,3.33
2023-03-29T20:07:52.289Z,6.30
2023-03-29T20:13:24.491Z,2.88
2023-03-29T20:18:56.311Z,2.97
2023-03-29T20:24:20.102Z,2.75
2023-03-29T20:29:45.247Z,3.08
2023-03-29T20:35:10.995Z,2.65
2023-03-29T20:40:37.225Z,4.28
2023-03-29T20:46:02.323Z,3.95
2023-03-29T20:51:28.137Z,2.80
2023-03-29T20:56:52.006Z,3.95
2023-03-29T21:02:21.218Z,5.88
2023-03-29T21:07:47.961Z,4.68
2023-03-29T21:13:13.507Z,6.28
2023-03-29T21:18:39.774Z,4.75
2023-03-29T21:24:03.839Z,4.57
2023-03-29T21:29:27.813Z,6.47
2023-03-29T21:34:52.976Z,6.32
2023-03-29T21:40:16.733Z,6.95
2023-03-29T21:45:40.543Z,7.10
2023-03-29T21:51:08.519Z,7.05
2023-03-29T21:56:32.347Z,6.85
2023-03-29T22:01:56.119Z,6.95
2023-03-29T22:07:22.816Z,13.95
2023-03-29T22:12:47.971Z,9.48
2023-03-29T22:18:12.590Z,6.38
2023-03-29T22:23:37.937Z,11.50
2023-03-29T22:29:02.379Z,13.05
2023-03-29T22:34:26.512Z,11.13
2023-03-29T22:39:52.195Z,7.90
2023-03-29T22:45:16.178Z,8.57
2023-03-29T22:50:42.836Z,6.93
2023-03-29T22:56:09.307Z,8.15
2023-03-29T23:01:33.273Z,8.05
2023-03-29T23:06:57.047Z,7.63
2023-03-29T23:12:24.198Z,13.50
2023-03-29T23:17:47.969Z,7.65
2023-03-29T23:23:11.953Z,9.85
2023-03-29T23:28:37.122Z,8.10
2023-03-29T23:34:00.874Z,14.25
2023-03-29T23:39:25.133Z,11.57
2023-03-29T23:44:50.781Z,12.63
2023-03-29T23:50:15.570Z,14.82
2023-03-29T23:55:39.348Z,10.63
